createdAt,value
2022-11-30T00:00:53.092Z,1.04
2022-11-30T00:01:53.266Z,1.04
2022-11-30T00:02:53.572Z,1.04
2022-11-30T00:03:53.653Z,1.04
2022-11-30T00:04:53.805Z,1.04
2022-11-30T00:05:53.955Z,1.04
2022-11-30T00:06:54.139Z,1.04
2022-11-30T00:07:54.295Z,1.04
2022-11-30T00:08:54.422Z,1.04
2022-11-30T00:09:54.509Z,1.04
2022-11-30T00:10:54.658Z,1.04
2022-11-30T00:11:54.859Z,1.04
2022-11-30T00:12:55.001Z,1.04
2022-11-30T00:13:55.289Z,1.04
2022-11-30T00:14:55.824Z,1.04
2022-11-30T00:15:55.369Z,1.04
2022-11-30T00:16:55.577Z,1.04
2022-11-30T00:17:55.664Z,1.04
2022-11-30T00:18:55.778Z,1.04
2022-11-30T00:19:55.930Z,1.04
2022-11-30T00:20:56.085Z,1.04
2022-11-30T00:21:56.225Z,1.04
2022-11-30T00:22:56.382Z,1.04
2022-11-30T00:23:56.532Z,1.04
2022-11-30T00:24:56.684Z,1.04
2022-11-30T00:25:56.843Z,1.04
2022-11-30T00:26:56.992Z,1.04
2022-11-30T00:27:57.142Z,1.04
2022-11-30T00:28:57.293Z,1.04
2022-11-30T00:29:58.038Z,1.04
2022-11-30T00:30:57.658Z,1.04
2022-11-30T00:31:57.692Z,1.04
2022-11-30T00:32:57.806Z,1.04
2022-11-30T00:33:57.957Z,1.04
2022-11-30T00:34:58.041Z,1.04
2022-11-30T00:35:58.201Z,1.04
2022-11-30T00:36:58.372Z,1.04
2022-11-30T00:37:58.510Z,1.04
2022-11-30T00:38:58.692Z,1.04
2022-11-30T00:39:59.337Z,1.04
2022-11-30T00:40:58.922Z,1.04
2022-11-30T00:41:59.056Z,1.04
2022-11-30T00:42:59.216Z,1.04
2022-11-30T00:43:59.355Z,1.04
2022-11-30T00:45:00.061Z,1.04
2022-11-30T00:45:59.708Z,1.04
2022-11-30T00:46:59.803Z,1.04
2022-11-30T00:47:59.939Z,1.04
2022-11-30T00:49:00.084Z,1.04
2022-11-30T00:50:00.235Z,1.04
2022-11-30T00:51:00.378Z,1.04
2022-11-30T00:52:00.473Z,1.04
2022-11-30T00:53:00.623Z,1.04
2022-11-30T00:54:00.781Z,1.04
2022-11-30T00:55:04.013Z,1.04
2022-11-30T00:56:01.042Z,1.04
2022-11-30T00:57:01.173Z,1.04
2022-11-30T00:58:01.321Z,1.04
2022-11-30T00:59:01.437Z,1.04
2022-11-30T01:00:02.111Z,1.04
2022-11-30T01:01:01.779Z,1.04
2022-11-30T01:02:01.958Z,1.04
2022-11-30T01:03:02.044Z,1.04
2022-11-30T01:04:02.194Z,1.04
2022-11-30T01:05:02.344Z,1.04
2022-11-30T01:06:02.493Z,1.04
2022-11-30T01:07:02.599Z,1.04
2022-11-30T01:08:02.774Z,1.04
2022-11-30T01:09:02.851Z,1.04
2022-11-30T01:10:02.962Z,1.04
2022-11-30T01:11:03.093Z,1.04
2022-11-30T01:12:03.252Z,1.04
2022-11-30T01:13:03.415Z,1.04
2022-11-30T01:14:03.566Z,1.04
2022-11-30T01:15:04.775Z,1.04
2022-11-30T01:16:03.909Z,1.04
2022-11-30T01:17:03.954Z,1.04
2022-11-30T01:18:04.110Z,1.04
2022-11-30T01:19:04.235Z,1.04
2022-11-30T01:20:04.365Z,1.04
2022-11-30T01:21:04.522Z,1.04
2022-11-30T01:22:04.622Z,1.04
2022-11-30T01:23:04.781Z,1.04
2022-11-30T01:24:04.914Z,1.04
2022-11-30T01:25:05.080Z,1.04
2022-11-30T01:26:05.222Z,1.04
2022-11-30T01:27:05.324Z,1.04
2022-11-30T01:28:05.470Z,1.04
2022-11-30T01:29:05.627Z,1.04
2022-11-30T01:30:06.298Z,1.04
2022-11-30T01:31:06.005Z,1.04
2022-11-30T01:32:06.027Z,1.04
2022-11-30T01:33:06.217Z,1.04
2022-11-30T01:34:06.339Z,1.04
2022-11-30T01:35:06.429Z,1.04
2022-11-30T01:36:06.587Z,1.04
2022-11-30T01:37:06.682Z,1.04
2022-11-30T01:38:06.816Z,1.04
2022-11-30T01:39:06.977Z,1.04
2022-11-30T01:40:07.093Z,1.04
2022-11-30T01:41:07.252Z,1.04
2022-11-30T01:42:07.401Z,1.04
2022-11-30T01:43:07.546Z,1.04
2022-11-30T01:44:07.696Z,1.04
2022-11-30T01:45:08.406Z,1.04
2022-11-30T01:46:08.050Z,1.04
2022-11-30T01:47:08.176Z,1.04
2022-11-30T01:48:08.871Z,1.04
2022-11-30T01:49:08.453Z,1.04
2022-11-30T01:50:08.662Z,1.04
2022-11-30T01:51:09.277Z,1.04
2022-11-30T01:52:08.909Z,1.04
2022-11-30T01:53:09.067Z,1.04
2022-11-30T01:54:09.209Z,1.04
2022-11-30T01:55:09.363Z,1.04
2022-11-30T01:56:09.472Z,1.04
2022-11-30T01:57:09.566Z,1.04
2022-11-30T01:58:09.660Z,1.04
2022-11-30T01:59:09.814Z,1.04
2022-11-30T02:00:10.538Z,1.04
2022-11-30T02:01:10.135Z,1.04
2022-11-30T02:02:10.289Z,1.04
2022-11-30T02:03:10.387Z,1.04
2022-11-30T02:04:10.490Z,1.04
2022-11-30T02:05:10.632Z,1.04
2022-11-30T02:06:10.780Z,1.04
2022-11-30T02:07:10.952Z,1.04
2022-11-30T02:08:11.229Z,1.04
2022-11-30T02:09:11.232Z,1.04
2022-11-30T02:10:11.389Z,1.04
2022-11-30T02:11:11.536Z,1.04
2022-11-30T02:12:11.685Z,1.04
2022-11-30T02:13:11.785Z,1.04
2022-11-30T02:14:11.914Z,1.04
2022-11-30T02:15:12.591Z,1.04
2022-11-30T02:16:12.201Z,1.04
2022-11-30T02:17:12.303Z,1.04
2022-11-30T02:18:12.401Z,1.04
2022-11-30T02:19:12.550Z,1.04
2022-11-30T02:20:12.699Z,1.04
2022-11-30T02:21:12.853Z,1.04
2022-11-30T02:22:13.008Z,1.04
2022-11-30T02:23:13.112Z,1.04
2022-11-30T02:24:13.253Z,1.04
2022-11-30T02:25:13.405Z,1.04
2022-11-30T02:26:13.500Z,1.04
2022-11-30T02:27:13.662Z,1.04
2022-11-30T02:28:13.810Z,1.04
2022-11-30T02:29:13.958Z,1.04
2022-11-30T02:30:14.647Z,1.04
2022-11-30T02:31:14.262Z,1.04
2022-11-30T02:32:14.336Z,1.04
2022-11-30T02:33:14.431Z,1.04
2022-11-30T02:34:14.619Z,1.04
2022-11-30T02:35:14.725Z,1.04
2022-11-30T02:36:14.875Z,1.04
2022-11-30T02:37:15.026Z,1.04
2022-11-30T02:38:15.178Z,1.04
2022-11-30T02:39:15.336Z,1.04
2022-11-30T02:40:15.483Z,1.04
2022-11-30T02:41:15.625Z,1.04
2022-11-30T02:42:15.735Z,1.04
2022-11-30T02:43:15.886Z,1.04
2022-11-30T02:44:15.985Z,1.04
2022-11-30T02:45:16.656Z,1.04
2022-11-30T02:46:16.283Z,1.04
2022-11-30T02:47:16.344Z,1.04
2022-11-30T02:48:16.499Z,1.04
2022-11-30T02:49:16.645Z,1.04
2022-11-30T02:50:16.824Z,1.04
2022-11-30T02:51:16.948Z,1.04
2022-11-30T02:52:17.099Z,1.04
2022-11-30T02:53:17.261Z,1.04
2022-11-30T02:54:17.403Z,1.04
2022-11-30T02:55:17.567Z,1.04
2022-11-30T02:56:17.742Z,1.04
2022-11-30T02:57:17.857Z,1.04
2022-11-30T02:58:18.009Z,1.04
2022-11-30T02:59:18.161Z,1.04
2022-11-30T03:00:18.813Z,1.04
2022-11-30T03:01:18.521Z,1.04
2022-11-30T03:02:18.644Z,1.04
2022-11-30T03:03:18.711Z,1.04
2022-11-30T03:04:18.870Z,1.04
2022-11-30T03:05:18.983Z,1.04
2022-11-30T03:06:19.149Z,1.04
2022-11-30T03:07:19.317Z,1.04
2022-11-30T03:08:19.440Z,1.04
2022-11-30T03:09:19.595Z,1.04
2022-11-30T03:10:19.727Z,1.04
2022-11-30T03:11:19.866Z,1.04
2022-11-30T03:12:20.035Z,1.04
2022-11-30T03:13:20.151Z,1.04
2022-11-30T03:14:20.281Z,1.04
2022-11-30T03:15:20.966Z,1.04
2022-11-30T03:16:20.655Z,1.04
2022-11-30T03:17:20.732Z,1.04
2022-11-30T03:18:20.886Z,1.04
2022-11-30T03:19:21.046Z,1.04
2022-11-30T03:20:21.190Z,1.04
2022-11-30T03:21:21.344Z,1.04
2022-11-30T03:22:21.498Z,1.04
2022-11-30T03:23:21.612Z,1.04
2022-11-30T03:24:21.734Z,1.04
2022-11-30T03:25:21.901Z,1.04
2022-11-30T03:26:22.032Z,1.04
2022-11-30T03:27:22.204Z,1.04
2022-11-30T03:28:22.929Z,1.04
2022-11-30T03:29:22.509Z,1.04
2022-11-30T03:30:23.170Z,1.04
2022-11-30T03:31:22.843Z,1.04
2022-11-30T03:32:22.954Z,1.04
2022-11-30T03:33:23.059Z,1.04
2022-11-30T03:34:23.164Z,1.04
2022-11-30T03:35:23.261Z,1.04
2022-11-30T03:36:23.409Z,1.04
2022-11-30T03:37:23.507Z,1.04
2022-11-30T03:38:23.668Z,1.04
2022-11-30T03:39:23.769Z,1.04
2022-11-30T03:40:23.938Z,1.04
2022-11-30T03:41:24.067Z,1.04
2022-11-30T03:42:24.185Z,1.04
2022-11-30T03:43:24.326Z,1.04
2022-11-30T03:44:24.473Z,1.04
2022-11-30T03:45:25.192Z,1.04
2022-11-30T03:46:24.852Z,1.04
2022-11-30T03:47:24.923Z,1.04
2022-11-30T03:48:25.082Z,1.04
2022-11-30T03:49:25.170Z,1.04
2022-11-30T03:50:25.339Z,1.04
2022-11-30T03:51:25.447Z,1.04
2022-11-30T03:52:25.584Z,1.04
2022-11-30T03:53:25.734Z,1.04
2022-11-30T03:54:25.884Z,1.04
2022-11-30T03:55:26.042Z,1.04
2022-11-30T03:56:26.206Z,1.04
2022-11-30T03:57:26.358Z,1.04
2022-11-30T03:58:26.497Z,1.04
2022-11-30T03:59:26.646Z,1.04
2022-11-30T04:00:27.318Z,1.04
2022-11-30T04:01:27.008Z,1.04
2022-11-30T04:02:27.129Z,1.04
2022-11-30T04:03:27.204Z,1.04
2022-11-30T04:04:27.334Z,1.04
2022-11-30T04:05:27.404Z,1.04
2022-11-30T04:06:27.564Z,1.04
2022-11-30T04:07:27.753Z,1.04
2022-11-30T04:08:27.862Z,1.04
2022-11-30T04:09:28.024Z,1.04
2022-11-30T04:10:28.153Z,1.04
2022-11-30T04:11:28.315Z,1.04
2022-11-30T04:12:28.461Z,1.04
2022-11-30T04:13:28.631Z,1.04
2022-11-30T04:14:28.771Z,1.04
2022-11-30T04:15:29.492Z,1.04
2022-11-30T04:16:29.095Z,1.04
2022-11-30T04:17:29.147Z,1.04
2022-11-30T04:18:29.278Z,1.04
2022-11-30T04:19:29.414Z,1.04
2022-11-30T04:20:29.516Z,1.04
2022-11-30T04:21:29.621Z,1.04
2022-11-30T04:22:29.789Z,1.04
2022-11-30T04:23:29.931Z,1.04
2022-11-30T04:24:30.079Z,1.04
2022-11-30T04:25:30.176Z,1.04
2022-11-30T04:26:30.281Z,1.04
2022-11-30T04:27:30.442Z,1.04
2022-11-30T04:28:30.591Z,1.04
2022-11-30T04:29:30.735Z,1.04
2022-11-30T04:30:31.532Z,1.04
2022-11-30T04:31:31.118Z,1.04
2022-11-30T04:32:31.191Z,1.04
2022-11-30T04:33:31.351Z,1.04
2022-11-30T04:34:31.496Z,1.04
2022-11-30T04:35:31.603Z,1.04
2022-11-30T04:36:31.745Z,1.04
2022-11-30T04:37:31.902Z,1.04
2022-11-30T04:38:32.101Z,1.04
2022-11-30T04:39:32.705Z,1.04
2022-11-30T04:40:32.305Z,1.04
2022-11-30T04:41:32.412Z,1.04
2022-11-30T04:42:32.561Z,1.04
2022-11-30T04:43:32.716Z,1.04
2022-11-30T04:44:32.858Z,1.04
2022-11-30T04:45:35.456Z,1.04
2022-11-30T04:46:33.222Z,1.04
2022-11-30T04:47:33.303Z,1.04
2022-11-30T04:48:33.422Z,1.04
2022-11-30T04:49:33.575Z,1.04
2022-11-30T04:50:33.737Z,1.04
2022-11-30T04:51:33.878Z,1.04
2022-11-30T04:52:34.035Z,1.04
2022-11-30T04:53:34.185Z,1.04
2022-11-30T04:54:34.322Z,1.04
2022-11-30T04:55:34.429Z,1.04
2022-11-30T04:56:34.580Z,1.04
2022-11-30T04:57:34.732Z,1.04
2022-11-30T04:58:34.880Z,1.04
2022-11-30T04:59:35.504Z,1.04
2022-11-30T05:00:35.143Z,1.04
2022-11-30T05:01:35.347Z,1.04
2022-11-30T05:02:35.434Z,1.04
2022-11-30T05:03:35.592Z,1.04
2022-11-30T05:04:35.775Z,1.04
2022-11-30T05:05:35.942Z,1.04
2022-11-30T05:06:36.029Z,1.04
2022-11-30T05:07:36.315Z,1.04
2022-11-30T05:08:36.349Z,1.04
2022-11-30T05:09:36.435Z,1.04
2022-11-30T05:10:36.592Z,1.04
2022-11-30T05:11:36.694Z,1.04
2022-11-30T05:12:36.852Z,1.04
2022-11-30T05:13:36.963Z,1.04
2022-11-30T05:14:37.616Z,1.04
2022-11-30T05:15:37.228Z,1.04
2022-11-30T05:16:37.421Z,1.04
2022-11-30T05:17:37.514Z,1.04
2022-11-30T05:18:37.665Z,1.04
2022-11-30T05:19:37.808Z,1.04
2022-11-30T05:20:37.971Z,1.04
2022-11-30T05:21:41.304Z,1.04
2022-11-30T05:22:38.244Z,1.04
2022-11-30T05:23:38.375Z,1.04
2022-11-30T05:24:38.521Z,1.04
2022-11-30T05:25:38.681Z,1.04
2022-11-30T05:26:38.827Z,1.04
2022-11-30T05:27:38.966Z,1.04
2022-11-30T05:28:39.128Z,1.04
2022-11-30T05:29:39.966Z,1.04
2022-11-30T05:30:39.423Z,1.04
2022-11-30T05:31:39.618Z,1.04
2022-11-30T05:32:39.732Z,1.04
2022-11-30T05:33:39.862Z,1.04
2022-11-30T05:34:49.954Z,1.04
2022-11-30T05:35:40.154Z,1.04
2022-11-30T05:36:40.284Z,1.04
2022-11-30T05:37:40.438Z,1.04
2022-11-30T05:38:40.547Z,1.04
2022-11-30T05:39:40.696Z,1.04
2022-11-30T05:40:40.798Z,1.04
2022-11-30T05:41:40.961Z,1.04
2022-11-30T05:42:41.112Z,1.04
2022-11-30T05:43:41.247Z,1.04
2022-11-30T05:44:41.955Z,1.04
2022-11-30T05:45:41.539Z,1.04
2022-11-30T05:46:41.687Z,1.04
2022-11-30T05:47:41.807Z,1.04
2022-11-30T05:48:41.962Z,1.04
2022-11-30T05:49:42.116Z,1.04
2022-11-30T05:50:42.256Z,1.04
2022-11-30T05:51:42.413Z,1.04
2022-11-30T05:52:42.560Z,1.04
2022-11-30T05:53:42.717Z,1.04
2022-11-30T05:54:42.832Z,1.04
2022-11-30T05:55:42.969Z,1.04
2022-11-30T05:56:43.121Z,1.04
2022-11-30T05:57:43.218Z,1.04
2022-11-30T05:58:43.382Z,1.04
2022-11-30T05:59:44.037Z,1.04
2022-11-30T06:00:43.619Z,1.04
2022-11-30T06:01:43.827Z,1.04
2022-11-30T06:02:44.028Z,1.04
2022-11-30T06:03:44.063Z,1.04
2022-11-30T06:04:44.283Z,2
2022-11-30T06:05:44.334Z,2
2022-11-30T06:06:44.477Z,2
2022-11-30T06:07:44.674Z,2
2022-11-30T06:08:44.786Z,3.04
2022-11-30T06:09:44.884Z,3.04
2022-11-30T06:10:44.986Z,3.04
2022-11-30T06:11:45.138Z,4
2022-11-30T06:12:45.336Z,4
2022-11-30T06:13:45.445Z,5.04
2022-11-30T06:14:46.339Z,5.04
2022-11-30T06:15:45.736Z,6
2022-11-30T06:16:45.921Z,7.04
2022-11-30T06:17:46.058Z,8
2022-11-30T06:18:46.145Z,10
2022-11-30T06:19:46.313Z,11.04
2022-11-30T06:20:46.451Z,13.04
2022-11-30T06:21:46.554Z,15.04
2022-11-30T06:22:46.750Z,18
2022-11-30T06:23:47.479Z,21.04
2022-11-30T06:24:47.345Z,26
2022-11-30T06:25:47.112Z,30
2022-11-30T06:26:47.266Z,35.04
2022-11-30T06:27:47.573Z,41.04
2022-11-30T06:28:48.670Z,48
2022-11-30T06:29:48.452Z,57.04
2022-11-30T06:30:48.012Z,65.04
2022-11-30T06:31:48.222Z,74
2022-11-30T06:32:48.327Z,93.04
2022-11-30T06:33:48.427Z,104
2022-11-30T06:34:48.725Z,116
2022-11-30T06:35:48.724Z,132
2022-11-30T06:36:48.870Z,147.04
2022-11-30T06:37:49.049Z,167.04
2022-11-30T06:38:49.189Z,186.08
2022-11-30T06:40:06.335Z,205.12
2022-11-30T06:40:49.435Z,231.04
2022-11-30T06:41:54.293Z,254.08
2022-11-30T06:42:49.752Z,278.08
2022-11-30T06:43:49.879Z,308
2022-11-30T06:44:50.708Z,335.04
2022-11-30T06:45:50.252Z,368
2022-11-30T06:46:50.329Z,405.12
2022-11-30T06:47:50.518Z,433.28
2022-11-30T06:48:50.640Z,468.16
2022-11-30T06:49:50.790Z,515.2
2022-11-30T06:50:50.893Z,547.2
2022-11-30T06:51:51.055Z,577.28
2022-11-30T06:52:51.199Z,608
2022-11-30T06:53:51.307Z,652.16
2022-11-30T06:54:51.451Z,688
2022-11-30T06:55:51.600Z,731.52
2022-11-30T06:56:51.748Z,762.24
2022-11-30T06:57:51.900Z,790.4
2022-11-30T06:58:52.067Z,815.36
2022-11-30T06:59:52.727Z,839.04
2022-11-30T07:00:52.442Z,866.56
2022-11-30T07:01:52.520Z,902.4
2022-11-30T07:02:52.679Z,942.08
2022-11-30T07:03:52.835Z,992
2022-11-30T07:04:52.967Z,1064.32
2022-11-30T07:05:53.112Z,1111.04
2022-11-30T07:06:53.271Z,1157.12
2022-11-30T07:07:53.447Z,1192.32
2022-11-30T07:08:53.527Z,1214.08
2022-11-30T07:09:53.684Z,1241.6
2022-11-30T07:10:53.833Z,1264
2022-11-30T07:11:53.983Z,1282.56
2022-11-30T07:12:54.124Z,1364.48
2022-11-30T07:13:54.282Z,1402.88
2022-11-30T07:14:55.050Z,1443.84
2022-11-30T07:15:54.580Z,1501.44
2022-11-30T07:16:54.816Z,1546.24
2022-11-30T07:17:54.880Z,1607.68
2022-11-30T07:18:54.994Z,1661.44
2022-11-30T07:19:55.138Z,1720.32
2022-11-30T07:20:55.295Z,1781.76
2022-11-30T07:21:55.442Z,1850.88
2022-11-30T07:22:55.616Z,1934.08
2022-11-30T07:23:56.835Z,2001.92
2022-11-30T07:24:55.909Z,2090.24
2022-11-30T07:25:56.044Z,2169.6
2022-11-30T07:26:56.217Z,2259.2
2022-11-30T07:27:56.350Z,2356.48
2022-11-30T07:28:56.506Z,2443.52
2022-11-30T07:29:57.229Z,2551.04
2022-11-30T07:30:56.795Z,2647.04
2022-11-30T07:31:57.000Z,2734.08
2022-11-30T07:32:57.109Z,2828.8
2022-11-30T07:33:57.273Z,2946.56
2022-11-30T07:34:57.362Z,3036.16
2022-11-30T07:35:57.505Z,3146.24
2022-11-30T07:36:57.667Z,3230.72
2022-11-30T07:37:57.826Z,3325.44
2022-11-30T07:38:57.911Z,3427.84
2022-11-30T07:39:58.217Z,3499.52
2022-11-30T07:40:58.228Z,3560.96
2022-11-30T07:41:58.391Z,3635.2
2022-11-30T07:42:58.518Z,3696.64
2022-11-30T07:43:58.680Z,3768.32
2022-11-30T07:44:59.768Z,3832.32
2022-11-30T07:45:59.084Z,3944.96
2022-11-30T07:46:59.116Z,4078.08
2022-11-30T07:47:59.227Z,4221.44
2022-11-30T07:48:59.328Z,4400.64
2022-11-30T07:49:59.475Z,4559.36
2022-11-30T07:50:59.636Z,4695.04
2022-11-30T07:51:59.782Z,4874.24
2022-11-30T07:52:59.945Z,5030.4
2022-11-30T07:54:00.115Z,5263.36
2022-11-30T07:55:00.249Z,5509.12
2022-11-30T07:56:00.397Z,5795.84
2022-11-30T07:57:00.489Z,5949.44
2022-11-30T07:58:00.651Z,6056.96
2022-11-30T07:59:00.831Z,6205.44
2022-11-30T08:00:01.523Z,6369.28
2022-11-30T08:01:01.231Z,6737.92
2022-11-30T08:02:01.404Z,6656
2022-11-30T08:03:01.336Z,6865.92
2022-11-30T08:04:01.492Z,6968.32
2022-11-30T08:05:01.716Z,7249.92
2022-11-30T08:06:01.815Z,7009.28
2022-11-30T08:07:01.970Z,6865.92
2022-11-30T08:08:02.139Z,6702.08
2022-11-30T08:09:02.222Z,6528
2022-11-30T08:10:02.369Z,6405.12
2022-11-30T08:11:02.506Z,6364.16
2022-11-30T08:12:02.630Z,6343.68
2022-11-30T08:13:02.782Z,6359.04
2022-11-30T08:14:02.928Z,6487.04
2022-11-30T08:15:20.554Z,6589.44
2022-11-30T08:16:03.218Z,6712.32
2022-11-30T08:17:03.405Z,6691.84
2022-11-30T08:18:03.490Z,6640.64
2022-11-30T08:19:03.632Z,6579.2
2022-11-30T08:20:03.778Z,6620.16
2022-11-30T08:21:03.886Z,6650.88
2022-11-30T08:22:04.027Z,6615.04
2022-11-30T08:23:04.139Z,6620.16
2022-11-30T08:24:04.328Z,6656
2022-11-30T08:25:04.453Z,6727.68
2022-11-30T08:26:04.583Z,6809.6
2022-11-30T08:27:04.737Z,6927.36
2022-11-30T08:28:04.890Z,7050.24
2022-11-30T08:29:05.039Z,7162.88
2022-11-30T08:30:05.782Z,7265.28
2022-11-30T08:31:05.410Z,7367.68
2022-11-30T08:32:05.429Z,7470.08
2022-11-30T08:33:05.597Z,7572.48
2022-11-30T08:34:05.755Z,7685.12
2022-11-30T08:35:05.905Z,7772.16
2022-11-30T08:36:06.068Z,7843.84
2022-11-30T08:37:06.202Z,8023.04
2022-11-30T08:38:06.351Z,8258.56
2022-11-30T08:39:06.459Z,8494.08
2022-11-30T08:40:06.613Z,8683.52
2022-11-30T08:41:06.751Z,9205.76
2022-11-30T08:42:06.904Z,10752
2022-11-30T08:43:07.052Z,13312
2022-11-30T08:44:07.214Z,15360
2022-11-30T08:45:07.892Z,15851.52
2022-11-30T08:46:21.504Z,16066.56
2022-11-30T08:47:07.731Z,15923.199
2022-11-30T08:48:07.825Z,15728.64
2022-11-30T08:49:20.785Z,15237.12
2022-11-30T08:50:08.121Z,15411.199
2022-11-30T08:51:08.282Z,15769.6
2022-11-30T08:52:17.246Z,16322.56
2022-11-30T08:53:08.537Z,16527.36
2022-11-30T08:54:08.700Z,16640
2022-11-30T08:55:08.830Z,16640
2022-11-30T08:56:08.978Z,16896
2022-11-30T08:57:09.136Z,17008.64
2022-11-30T08:58:09.241Z,16875.52
2022-11-30T08:59:09.380Z,16721.92
2022-11-30T09:00:10.088Z,16824.32
2022-11-30T09:01:09.670Z,16906.24
2022-11-30T09:02:09.920Z,15667.199
2022-11-30T09:03:09.997Z,15503.359
2022-11-30T09:04:10.178Z,15718.399
2022-11-30T09:05:10.609Z,16097.279
2022-11-30T09:06:10.645Z,16322.56
2022-11-30T09:07:10.794Z,16158.72
2022-11-30T09:08:11.020Z,16967.68
2022-11-30T09:09:11.059Z,17305.6
2022-11-30T09:10:11.184Z,17479.68
2022-11-30T09:11:11.357Z,17367.04
2022-11-30T09:12:11.453Z,17326.08
2022-11-30T09:13:11.597Z,17008.64
2022-11-30T09:14:11.757Z,16936.96
2022-11-30T09:15:12.452Z,16609.28
2022-11-30T09:16:12.147Z,15226.88
2022-11-30T09:17:12.164Z,14305.279
2022-11-30T09:18:12.275Z,13158.399
2022-11-30T09:19:12.414Z,12574.72
2022-11-30T09:20:12.541Z,10823.68
2022-11-30T09:21:12.665Z,10956.8
2022-11-30T09:22:12.828Z,11335.68
2022-11-30T09:23:12.963Z,12236.8
2022-11-30T09:24:13.123Z,14387.199
2022-11-30T09:25:13.271Z,14080
2022-11-30T09:26:13.452Z,14172.16
2022-11-30T09:27:13.577Z,14182.399
2022-11-30T09:28:13.763Z,14325.76
2022-11-30T09:29:13.907Z,14878.72
2022-11-30T09:30:14.481Z,13660.16
2022-11-30T09:31:14.123Z,12871.68
2022-11-30T09:32:14.187Z,10792.96
2022-11-30T09:33:14.332Z,9651.2
2022-11-30T09:34:14.448Z,9487.359
2022-11-30T09:35:14.538Z,10050.56
2022-11-30T09:36:15.212Z,11356.16
2022-11-30T09:37:14.837Z,14848
2022-11-30T09:38:15.010Z,15892.479
2022-11-30T09:39:15.166Z,16240.64
2022-11-30T09:40:15.327Z,16138.239
2022-11-30T09:41:15.449Z,15984.64
2022-11-30T09:42:15.596Z,15974.399
2022-11-30T09:43:15.742Z,15892.479
2022-11-30T09:44:15.903Z,15534.08
2022-11-30T09:45:16.724Z,15482.88
2022-11-30T09:46:16.295Z,14981.12
2022-11-30T09:47:16.344Z,12595.2
2022-11-30T09:48:16.525Z,12359.68
2022-11-30T09:49:16.614Z,12533.76
2022-11-30T09:50:16.767Z,14018.56
2022-11-30T09:51:16.906Z,14571.52
2022-11-30T09:52:17.066Z,15267.84
2022-11-30T09:53:17.158Z,15431.68
2022-11-30T09:54:17.324Z,15534.08
2022-11-30T09:55:17.470Z,15226.88
2022-11-30T09:56:17.618Z,14888.96
2022-11-30T09:57:17.762Z,14673.92
2022-11-30T09:58:17.919Z,14919.68
2022-11-30T09:59:18.072Z,14632.96
2022-11-30T10:00:18.976Z,14581.76
2022-11-30T10:01:18.551Z,14520.319
2022-11-30T10:02:18.591Z,14213.12
2022-11-30T10:03:18.595Z,14028.8
2022-11-30T10:04:18.715Z,13936.64
2022-11-30T10:05:18.930Z,14028.8
2022-11-30T10:06:18.993Z,13936.64
2022-11-30T10:07:19.157Z,14039.04
2022-11-30T10:08:19.255Z,13875.199
2022-11-30T10:09:19.416Z,13864.96
2022-11-30T10:10:32.906Z,14039.04
2022-11-30T10:11:19.744Z,14161.92
2022-11-30T10:12:19.912Z,14192.64
2022-11-30T10:13:20.045Z,14069.76
2022-11-30T10:14:20.185Z,13957.12
2022-11-30T10:15:20.961Z,13854.72
2022-11-30T10:16:20.574Z,13670.399
2022-11-30T10:17:20.579Z,13711.359
2022-11-30T10:18:20.759Z,13660.16
2022-11-30T10:19:20.922Z,13639.68
2022-11-30T10:20:21.080Z,13568
2022-11-30T10:21:21.330Z,13219.84
2022-11-30T10:22:21.483Z,12902.399
2022-11-30T10:23:21.627Z,12922.88
2022-11-30T10:24:21.817Z,13025.279
2022-11-30T10:25:21.912Z,12789.76
2022-11-30T10:26:22.057Z,12554.239
2022-11-30T10:27:22.221Z,12298.239
2022-11-30T10:28:46.382Z,11960.319
2022-11-30T10:29:22.520Z,11468.8
2022-11-30T10:30:23.161Z,11735.04
2022-11-30T10:31:22.875Z,11673.6
2022-11-30T10:32:22.906Z,11560.96
2022-11-30T10:33:23.024Z,11427.84
2022-11-30T10:34:23.125Z,11366.399
2022-11-30T10:35:23.271Z,11591.68
2022-11-30T10:36:23.440Z,11264
2022-11-30T10:37:23.541Z,11182.08
2022-11-30T10:38:23.675Z,11192.319
2022-11-30T10:39:23.827Z,11079.68
2022-11-30T10:40:24.027Z,11284.479
2022-11-30T10:41:24.132Z,11212.8
2022-11-30T10:42:24.311Z,11304.96
2022-11-30T10:43:24.467Z,11468.8
2022-11-30T10:44:24.573Z,11448.319
2022-11-30T10:45:25.236Z,11325.439
2022-11-30T10:46:24.926Z,11100.16
2022-11-30T10:47:24.981Z,10977.279
2022-11-30T10:48:25.077Z,10915.84
2022-11-30T10:49:25.192Z,10844.16
2022-11-30T10:50:25.286Z,10915.84
2022-11-30T10:51:25.436Z,10721.279
2022-11-30T10:52:25.592Z,10137.6
2022-11-30T10:53:25.745Z,9953.279
2022-11-30T10:54:25.896Z,10296.319
2022-11-30T10:55:26.050Z,10649.6
2022-11-30T10:56:26.203Z,10465.279
2022-11-30T10:57:26.380Z,10004.479
2022-11-30T10:58:26.510Z,9441.28
2022-11-30T10:59:26.667Z,9226.24
2022-11-30T11:00:27.489Z,8970.24
2022-11-30T11:01:27.018Z,8739.84
2022-11-30T11:02:27.148Z,8847.359
2022-11-30T11:03:27.208Z,8883.2
2022-11-30T11:04:27.440Z,8698.88
2022-11-30T11:05:27.532Z,8632.319
2022-11-30T11:06:27.660Z,8335.36
2022-11-30T11:07:27.863Z,8284.16
2022-11-30T11:08:27.936Z,8279.04
2022-11-30T11:09:28.066Z,8360.96
2022-11-30T11:10:28.230Z,8448
2022-11-30T11:11:28.374Z,8391.68
2022-11-30T11:12:28.527Z,8678.399
2022-11-30T11:13:28.689Z,9410.56
2022-11-30T11:14:31.325Z,9436.16
2022-11-30T11:15:29.100Z,9031.68
2022-11-30T11:16:29.173Z,8366.08
2022-11-30T11:17:29.222Z,8616.96
2022-11-30T11:18:29.338Z,8811.52
2022-11-30T11:19:29.491Z,9169.92
2022-11-30T11:20:29.580Z,9441.28
2022-11-30T11:21:29.724Z,9922.56
2022-11-30T11:22:30.304Z,10496
2022-11-30T11:23:30.036Z,10547.2
2022-11-30T11:24:30.191Z,10496
2022-11-30T11:25:30.344Z,10342.399
2022-11-30T11:26:30.504Z,10731.52
2022-11-30T11:27:30.674Z,10772.479
2022-11-30T11:28:30.803Z,10874.88
2022-11-30T11:29:30.955Z,10997.76
2022-11-30T11:30:31.691Z,11294.72
2022-11-30T11:31:31.274Z,11520
2022-11-30T11:32:31.348Z,11489.279
2022-11-30T11:33:31.510Z,11550.72
2022-11-30T11:34:31.687Z,11550.72
2022-11-30T11:35:31.805Z,11520
2022-11-30T11:36:31.962Z,11151.359
2022-11-30T11:37:32.104Z,10731.52
2022-11-30T11:38:32.268Z,10936.319
2022-11-30T11:39:32.419Z,11243.52
2022-11-30T11:40:32.566Z,11233.279
2022-11-30T11:41:32.723Z,11120.64
2022-11-30T11:42:32.819Z,11069.439
2022-11-30T11:43:32.996Z,11151.359
2022-11-30T11:44:33.129Z,11171.84
2022-11-30T11:45:33.800Z,11264
2022-11-30T11:46:33.456Z,10967.04
2022-11-30T11:47:33.534Z,10823.68
2022-11-30T11:48:33.742Z,10936.319
2022-11-30T11:49:33.849Z,11100.16
2022-11-30T11:51:05.954Z,11130.88
2022-11-30T11:51:34.126Z,10977.279
2022-11-30T11:52:34.274Z,10577.92
2022-11-30T11:53:37.011Z,8637.439
2022-11-30T11:54:34.496Z,8268.8
2022-11-30T11:55:34.645Z,8427.52
2022-11-30T11:56:34.816Z,8017.92
2022-11-30T11:57:34.947Z,8401.92
2022-11-30T11:58:35.092Z,9630.72
2022-11-30T11:59:35.862Z,9077.76
2022-11-30T12:00:35.389Z,8739.84
2022-11-30T12:01:40.108Z,8299.52
2022-11-30T12:02:35.731Z,7587.84
2022-11-30T12:03:35.798Z,6983.68
2022-11-30T12:04:36.087Z,6599.68
2022-11-30T12:05:36.081Z,6394.88
2022-11-30T12:06:36.200Z,6272
2022-11-30T12:07:36.418Z,6272
2022-11-30T12:08:36.508Z,6323.2
2022-11-30T12:09:36.665Z,6297.6
2022-11-30T12:10:51.537Z,6174.72
2022-11-30T12:11:36.960Z,5975.04
2022-11-30T12:12:39.965Z,5893.12
2022-11-30T12:13:37.276Z,5811.2
2022-11-30T12:14:37.940Z,5708.8
2022-11-30T12:15:37.557Z,5591.04
2022-11-30T12:16:37.719Z,5514.24
2022-11-30T12:17:37.840Z,5463.04
2022-11-30T12:18:37.967Z,5401.6
2022-11-30T12:19:38.086Z,5324.8
2022-11-30T12:20:38.226Z,5283.84
2022-11-30T12:21:38.370Z,5268.48
2022-11-30T12:22:38.529Z,5288.96
2022-11-30T12:23:38.668Z,5365.76
2022-11-30T12:24:38.833Z,5370.88
2022-11-30T12:25:38.993Z,5360.64
2022-11-30T12:26:39.148Z,5335.04
2022-11-30T12:27:39.308Z,5319.68
2022-11-30T12:28:39.621Z,5299.2
2022-11-30T12:29:40.339Z,5288.96
2022-11-30T12:30:39.885Z,5278.72
2022-11-30T12:31:40.111Z,5288.96
2022-11-30T12:32:40.158Z,5304.32
2022-11-30T12:33:40.297Z,5324.8
2022-11-30T12:34:40.452Z,5350.4
2022-11-30T12:35:40.600Z,5396.48
2022-11-30T12:36:40.747Z,5411.84
2022-11-30T12:37:45.917Z,5509.12
2022-11-30T12:38:41.058Z,5616.64
2022-11-30T12:39:41.221Z,5626.88
2022-11-30T12:40:41.365Z,5611.52
2022-11-30T12:41:41.505Z,5616.64
2022-11-30T12:42:41.665Z,5565.44